Iron Springs, Canada
Current Conditions -  °F | °C
As of 6:00 AM on Wednesday 22 Oct 2014 (Local Time) from CYQL Reporting Station
Clear Clear  
Wind Chill: 35°   Ceiling: Unl
Heat Index: 43°   Visibility: 15mi
Dew Point: 30°   Wind: 16mph
Humidity: 61%   Direction: 240°WSW
Pressure: 29.83"   Gusts: NA
Location:  49.93°N, 112.69°W
Report Text: CYQL 221200Z 24014KT 15SM SKC 06/M01 A2983 RMK SLP114
Loading
Personal Weather Stations






























Interactive Weather Map
Tropical Storm Tracking
New forecast layout! Learn more

10-Day Weather Forecast

Advertisements
Track Severe Weather on mobile